createdAt,value
2018-12-23T00:01:23.592Z,2.61
2018-12-23T00:03:54.483Z,2.84
2018-12-23T00:06:25.033Z,3.01
2018-12-23T00:08:56.064Z,3.17
2018-12-23T00:11:26.619Z,3.40
2018-12-23T00:13:57.253Z,3.53
2018-12-23T00:16:27.968Z,3.72
2018-12-23T00:18:58.240Z,3.90
2018-12-23T00:21:28.981Z,4.06
2018-12-23T00:23:59.552Z,3.62
2018-12-23T00:26:30.585Z,3.48
2018-12-23T00:29:01.275Z,3.30
2018-12-23T00:31:31.963Z,3.23
2018-12-23T00:34:02.560Z,3.23
2018-12-23T00:36:33.316Z,3.12
2018-12-23T00:39:04.958Z,2.83
2018-12-23T00:41:36.684Z,2.65
2018-12-23T00:44:08.717Z,2.44
2018-12-23T00:46:39.188Z,2.47
2018-12-23T00:49:09.917Z,2.10
2018-12-23T00:51:40.462Z,2.01
2018-12-23T00:54:11.194Z,2.06
2018-12-23T00:56:41.919Z,2.07
2018-12-23T00:59:12.634Z,2.25
2018-12-23T01:01:43.525Z,2.27
2018-12-23T01:04:14.681Z,2.26
2018-12-23T01:06:45.423Z,2.08
2018-12-23T01:09:16.004Z,2.02
2018-12-23T01:11:46.818Z,2.02
2018-12-23T01:14:17.504Z,1.93
2018-12-23T01:16:48.148Z,1.81
2018-12-23T01:19:18.812Z,1.97
2018-12-23T01:21:49.499Z,1.99
2018-12-23T01:24:20.107Z,2.14
2018-12-23T01:26:50.838Z,2.25
2018-12-23T01:29:21.556Z,2.29
2018-12-23T01:31:52.372Z,2.42
2018-12-23T01:34:24.156Z,2.44
2018-12-23T01:36:54.943Z,2.42
2018-12-23T01:39:26.104Z,2.46
2018-12-23T01:41:56.725Z,2.54
2018-12-23T01:44:27.479Z,2.61
2018-12-23T01:46:58.552Z,2.44
2018-12-23T01:49:29.039Z,2.49
2018-12-23T01:51:59.972Z,2.52
2018-12-23T01:54:30.673Z,2.58
2018-12-23T01:57:01.338Z,2.74
2018-12-23T01:59:32.055Z,2.73
2018-12-23T02:02:02.791Z,2.84
2018-12-23T02:04:33.580Z,2.88
2018-12-23T02:07:04.250Z,2.97
2018-12-23T02:09:35.204Z,2.99
2018-12-23T02:12:05.862Z,3.03
2018-12-23T02:14:36.519Z,3.00
2018-12-23T02:17:07.232Z,3.00
2018-12-23T02:19:37.883Z,3.01
2018-12-23T02:22:08.690Z,3.06
2018-12-23T02:24:39.346Z,3.10
2018-12-23T02:27:10.159Z,3.21
2018-12-23T02:29:40.659Z,3.26
2018-12-23T02:32:11.509Z,3.28
2018-12-23T02:34:42.119Z,3.27
2018-12-23T02:37:13.009Z,3.35
2018-12-23T02:39:43.604Z,3.44
2018-12-23T02:42:14.342Z,3.59
2018-12-23T02:44:44.797Z,3.64
2018-12-23T02:47:15.584Z,3.80
2018-12-23T02:49:45.959Z,3.84
2018-12-23T02:52:16.814Z,3.95
2018-12-23T02:54:48.476Z,3.99
2018-12-23T02:57:19.258Z,4.10
2018-12-23T02:59:49.959Z,4.11
2018-12-23T03:02:21.776Z,4.20
2018-12-23T03:04:52.450Z,4.28
2018-12-23T03:07:23.139Z,4.37
2018-12-23T03:09:53.797Z,4.37
2018-12-23T03:12:24.644Z,4.46
2018-12-23T03:14:55.675Z,4.47
2018-12-23T03:17:26.845Z,4.75
2018-12-23T03:19:57.960Z,5.05
2018-12-23T03:22:28.861Z,5.22
2018-12-23T03:24:59.514Z,5.46
2018-12-23T03:27:30.206Z,5.58
2018-12-23T03:30:00.624Z,5.80
2018-12-23T03:32:31.541Z,5.88
2018-12-23T03:35:02.149Z,6.04
2018-12-23T03:37:32.662Z,6.21
2018-12-23T03:40:03.197Z,6.31
2018-12-23T03:42:33.714Z,6.40
2018-12-23T03:45:04.639Z,6.50
2018-12-23T03:47:35.451Z,6.67
2018-12-23T03:50:07.002Z,6.76
2018-12-23T03:52:37.657Z,6.85
2018-12-23T03:55:08.554Z,6.96
2018-12-23T03:57:39.172Z,7.06
2018-12-23T04:00:10.181Z,7.09
2018-12-23T04:02:40.788Z,7.08
2018-12-23T04:05:11.504Z,7.13
2018-12-23T04:07:42.259Z,7.07
2018-12-23T04:10:12.723Z,6.65
2018-12-23T04:12:43.316Z,6.27
2018-12-23T04:15:14.114Z,5.87
2018-12-23T04:17:45.570Z,5.73
2018-12-23T04:20:16.677Z,5.41
2018-12-23T04:22:47.897Z,5.44
2018-12-23T04:25:18.741Z,5.35
2018-12-23T04:27:49.346Z,5.29
2018-12-23T04:30:19.959Z,5.38
2018-12-23T04:32:50.755Z,5.51
2018-12-23T04:35:21.567Z,5.64
2018-12-23T04:37:52.526Z,5.84
2018-12-23T04:40:23.461Z,6.00
2018-12-23T04:42:54.379Z,6.14
2018-12-23T04:45:25.016Z,6.28
2018-12-23T04:47:55.868Z,6.42
2018-12-23T04:50:26.667Z,6.53
2018-12-23T04:52:57.409Z,6.54
2018-12-23T04:55:28.162Z,6.52
2018-12-23T04:57:58.868Z,6.50
2018-12-23T05:00:29.719Z,6.56
2018-12-23T05:03:00.676Z,6.62
2018-12-23T05:05:31.246Z,6.67
2018-12-23T05:08:02.043Z,6.67
2018-12-23T05:10:32.938Z,6.66
2018-12-23T05:13:03.611Z,6.71
2018-12-23T05:15:34.284Z,6.70
2018-12-23T05:18:04.879Z,6.74
2018-12-23T05:20:35.434Z,6.70
2018-12-23T05:23:06.113Z,6.70
2018-12-23T05:25:36.878Z,6.70
2018-12-23T05:28:07.655Z,6.73
2018-12-23T05:30:38.304Z,6.75
2018-12-23T05:33:09.084Z,6.75
2018-12-23T05:35:39.484Z,6.75
2018-12-23T05:38:10.341Z,6.77
2018-12-23T05:40:41.170Z,6.75
2018-12-23T05:43:11.857Z,6.76
2018-12-23T05:45:42.359Z,6.68
2018-12-23T05:48:12.956Z,6.65
2018-12-23T05:50:43.715Z,6.59
2018-12-23T05:53:14.514Z,6.62
2018-12-23T05:55:43.760Z,6.58
2018-12-23T05:58:14.523Z,6.56
2018-12-23T06:00:45.091Z,6.61
2018-12-23T06:03:15.632Z,6.67
2018-12-23T06:05:46.306Z,6.63
2018-12-23T06:08:16.730Z,6.60
2018-12-23T06:10:47.269Z,6.66
2018-12-23T06:13:17.908Z,6.64
2018-12-23T06:15:48.427Z,6.65
2018-12-23T06:18:19.153Z,6.60
2018-12-23T06:20:49.859Z,6.60
2018-12-23T06:23:20.413Z,6.68
2018-12-23T06:25:51.242Z,6.71
2018-12-23T06:28:21.703Z,6.77
2018-12-23T06:30:52.216Z,6.74
2018-12-23T06:33:22.702Z,6.71
2018-12-23T06:35:53.454Z,6.68
2018-12-23T06:38:24.072Z,6.68
2018-12-23T06:40:54.844Z,6.58
2018-12-23T06:43:25.434Z,6.63
2018-12-23T06:45:56.300Z,6.73
2018-12-23T06:48:27.040Z,6.85
2018-12-23T06:50:57.826Z,6.63
2018-12-23T06:53:28.650Z,6.83
2018-12-23T06:55:59.280Z,6.72
2018-12-23T06:58:30.348Z,6.81
2018-12-23T07:01:01.128Z,6.74
2018-12-23T07:03:31.888Z,6.69
2018-12-23T07:06:02.343Z,6.56
2018-12-23T07:08:32.900Z,6.64
2018-12-23T07:11:03.514Z,6.69
2018-12-23T07:13:34.339Z,6.87
2018-12-23T07:16:04.950Z,6.93
2018-12-23T07:18:35.831Z,7.05
2018-12-23T07:21:06.726Z,7.18
2018-12-23T07:23:37.596Z,7.35
2018-12-23T07:26:09.261Z,7.47
2018-12-23T07:28:40.156Z,7.55
2018-12-23T07:31:10.971Z,7.62
2018-12-23T07:33:41.671Z,7.68
2018-12-23T07:36:12.302Z,7.77
2018-12-23T07:38:42.977Z,7.84
2018-12-23T07:41:13.834Z,7.89
2018-12-23T07:43:44.558Z,7.94
2018-12-23T07:46:15.563Z,8.00
2018-12-23T07:48:46.330Z,8.12
2018-12-23T07:51:17.148Z,8.15
2018-12-23T07:53:48.066Z,8.22
2018-12-23T07:56:18.832Z,8.27
2018-12-23T07:58:49.558Z,8.14
2018-12-23T08:01:20.216Z,8.40
2018-12-23T08:03:51.055Z,8.81
2018-12-23T08:06:21.937Z,9.16
2018-12-23T08:08:52.908Z,9.60
2018-12-23T08:11:23.669Z,9.95
2018-12-23T08:13:54.765Z,10.27
2018-12-23T08:16:26.460Z,10.75
2018-12-23T08:18:57.200Z,11.21
2018-12-23T08:21:28.812Z,11.67
2018-12-23T08:23:59.403Z,11.53
2018-12-23T08:26:29.719Z,11.72
2018-12-23T08:29:00.332Z,12.00
2018-12-23T08:31:30.875Z,12.26
2018-12-23T08:34:01.297Z,11.91
2018-12-23T08:36:31.758Z,11.49
2018-12-23T08:39:02.431Z,11.88
2018-12-23T08:41:33.136Z,12.23
2018-12-23T08:44:03.868Z,12.46
2018-12-23T08:46:39.163Z,12.64
2018-12-23T08:49:06.974Z,12.93
2018-12-23T08:51:38.507Z,13.08
2018-12-23T08:54:08.950Z,13.16
2018-12-23T08:56:39.471Z,12.96
2018-12-23T08:59:09.881Z,12.96
2018-12-23T09:01:40.078Z,12.98
2018-12-23T09:04:10.398Z,12.75
2018-12-23T09:06:40.563Z,12.55
2018-12-23T09:09:10.864Z,12.27
2018-12-23T09:11:42.898Z,12.08
2018-12-23T09:14:12.996Z,11.97
2018-12-23T09:16:43.618Z,11.73
2018-12-23T09:19:13.857Z,11.29
2018-12-23T09:21:44.225Z,11.17
2018-12-23T09:24:14.350Z,11.33
2018-12-23T09:26:45.037Z,11.03
2018-12-23T09:29:15.411Z,10.93
2018-12-23T09:31:45.678Z,10.47
2018-12-23T09:34:16.498Z,10.23
2018-12-23T09:36:47.826Z,10.18
2018-12-23T09:39:18.800Z,10.12
2018-12-23T09:41:49.676Z,10.19
2018-12-23T09:44:20.074Z,10.20
2018-12-23T09:46:50.643Z,10.32
2018-12-23T09:49:21.355Z,10.72
2018-12-23T09:51:51.659Z,11.13
2018-12-23T09:54:22.112Z,11.40
2018-12-23T09:56:53.156Z,11.75
2018-12-23T09:59:23.850Z,11.91
2018-12-23T10:01:53.847Z,12.00
2018-12-23T10:04:24.531Z,11.85
2018-12-23T10:06:55.082Z,11.99
2018-12-23T10:09:25.433Z,11.80
2018-12-23T10:11:56.342Z,11.86
2018-12-23T10:14:27.124Z,11.51
2018-12-23T10:16:57.733Z,11.20
2018-12-23T10:19:28.274Z,10.76
2018-12-23T10:21:58.902Z,10.60
2018-12-23T10:24:29.631Z,10.31
2018-12-23T10:27:00.134Z,10.45
2018-12-23T10:29:30.795Z,10.18
2018-12-23T10:32:01.247Z,9.99
2018-12-23T10:34:33.178Z,10.00
2018-12-23T10:37:03.866Z,10.27
2018-12-23T10:39:34.953Z,10.48
2018-12-23T10:42:05.436Z,10.60
2018-12-23T10:44:35.726Z,10.71
2018-12-23T10:47:06.107Z,11.17
2018-12-23T10:49:36.532Z,11.61
2018-12-23T10:52:06.537Z,12.08
2018-12-23T10:54:36.879Z,12.59
2018-12-23T10:57:07.223Z,12.79
2018-12-23T10:59:37.859Z,12.78
2018-12-23T11:02:13.626Z,13.26
2018-12-23T11:04:41.119Z,12.89
2018-12-23T11:07:11.531Z,12.71
2018-12-23T11:09:41.984Z,12.45
2018-12-23T11:12:12.311Z,12.61
2018-12-23T11:14:42.874Z,12.33
2018-12-23T11:17:13.271Z,12.30
2018-12-23T11:19:43.605Z,12.31
2018-12-23T11:22:14.038Z,12.11
2018-12-23T11:24:44.490Z,11.94
2018-12-23T11:27:14.974Z,12.28
2018-12-23T11:29:45.171Z,12.42
2018-12-23T11:32:15.299Z,12.47
2018-12-23T11:34:45.597Z,12.74
2018-12-23T11:37:16.018Z,12.78
2018-12-23T11:39:46.539Z,12.62
2018-12-23T11:42:16.905Z,12.46
2018-12-23T11:44:47.302Z,12.71
2018-12-23T11:47:17.662Z,13.01
2018-12-23T11:49:48.056Z,13.33
2018-12-23T11:52:18.627Z,13.11
2018-12-23T11:54:48.974Z,12.72
2018-12-23T11:57:19.163Z,12.49
2018-12-23T11:59:49.596Z,12.65
2018-12-23T12:02:19.890Z,12.60
2018-12-23T12:04:50.471Z,12.61
2018-12-23T12:07:20.704Z,12.79
2018-12-23T12:09:51.252Z,12.60
2018-12-23T12:12:21.467Z,12.16
2018-12-23T12:14:51.728Z,11.64
2018-12-23T12:17:22.371Z,11.29
2018-12-23T12:19:53.147Z,10.87
2018-12-23T12:22:23.666Z,10.70
2018-12-23T12:24:54.382Z,10.82
2018-12-23T12:27:25.003Z,10.45
2018-12-23T12:29:55.777Z,10.46
2018-12-23T12:32:26.523Z,10.59
2018-12-23T12:34:59.182Z,10.41
2018-12-23T12:37:30.306Z,10.52
2018-12-23T12:40:02.042Z,10.70
2018-12-23T12:42:32.595Z,10.64
2018-12-23T12:45:03.325Z,10.37
2018-12-23T12:47:34.100Z,10.08
2018-12-23T12:50:04.754Z,10.12
2018-12-23T12:52:35.287Z,10.04
2018-12-23T12:55:05.958Z,10.11
2018-12-23T12:57:36.426Z,10.00
2018-12-23T13:00:08.173Z,9.88
2018-12-23T13:02:38.997Z,9.85
2018-12-23T13:05:09.848Z,9.61
2018-12-23T13:07:40.990Z,9.32
2018-12-23T13:10:11.705Z,9.05
2018-12-23T13:12:42.287Z,9.03
2018-12-23T13:15:13.300Z,9.09
2018-12-23T13:17:44.032Z,8.98
2018-12-23T13:20:14.878Z,9.01
2018-12-23T13:22:45.810Z,9.02
2018-12-23T13:25:16.749Z,9.01
2018-12-23T13:27:47.707Z,9.06
2018-12-23T13:30:18.418Z,8.97
2018-12-23T13:32:49.080Z,9.00
2018-12-23T13:35:19.865Z,8.88
2018-12-23T13:37:50.112Z,8.94
2018-12-23T13:40:35.516Z,8.77
2018-12-23T13:43:13.419Z,8.73
2018-12-23T13:46:03.939Z,8.69
2018-12-23T13:48:45.018Z,8.63
2018-12-23T13:51:26.476Z,8.65
2018-12-23T13:54:43.206Z,8.61
2018-12-23T13:57:31.336Z,8.56
2018-12-23T14:01:10.571Z,8.53
2018-12-23T14:04:52.277Z,8.55
2018-12-23T14:09:38.192Z,8.34
2018-12-23T14:12:08.815Z,8.23
2018-12-23T14:14:39.452Z,8.11
2018-12-23T14:17:10.178Z,8.04
2018-12-23T14:19:40.775Z,8.11
2018-12-23T14:22:11.571Z,7.99
2018-12-23T14:24:42.318Z,8.02
2018-12-23T14:27:12.917Z,7.96
2018-12-23T14:29:43.674Z,7.96
2018-12-23T14:32:14.380Z,7.77
2018-12-23T14:34:45.252Z,7.83
2018-12-23T14:37:15.799Z,7.76
2018-12-23T14:39:47.366Z,7.74
2018-12-23T14:42:18.123Z,7.82
2018-12-23T14:44:48.852Z,7.70
2018-12-23T14:47:19.630Z,7.66
2018-12-23T14:49:50.503Z,7.63
2018-12-23T14:52:22.260Z,7.62
2018-12-23T14:54:53.195Z,7.71
2018-12-23T14:57:23.639Z,7.75
2018-12-23T14:59:54.223Z,7.74
2018-12-23T15:02:24.644Z,7.77
2018-12-23T15:04:55.157Z,7.77
2018-12-23T15:07:25.967Z,7.78
2018-12-23T15:09:56.631Z,7.75
2018-12-23T15:12:27.334Z,7.73
2018-12-23T15:14:58.134Z,7.76
2018-12-23T15:17:28.747Z,7.64
2018-12-23T15:19:59.510Z,7.61
2018-12-23T15:22:29.754Z,7.54
2018-12-23T15:25:00.316Z,7.52
2018-12-23T15:27:31.007Z,7.53
2018-12-23T15:30:01.599Z,7.51
2018-12-23T15:32:32.318Z,7.64
2018-12-23T15:35:02.735Z,7.56
2018-12-23T15:37:33.276Z,7.66
2018-12-23T15:40:04.353Z,7.78
2018-12-23T15:42:34.951Z,7.76
2018-12-23T15:45:05.628Z,7.82
2018-12-23T15:47:35.978Z,7.92
2018-12-23T15:50:06.876Z,7.74
2018-12-23T15:52:37.246Z,7.72
2018-12-23T15:55:07.588Z,7.74
2018-12-23T15:57:38.175Z,7.72
2018-12-23T16:00:09.547Z,7.69
2018-12-23T16:02:40.050Z,7.74
2018-12-23T16:05:10.660Z,7.66
2018-12-23T16:07:41.443Z,7.65
2018-12-23T16:10:12.307Z,7.61
2018-12-23T16:12:42.897Z,7.59
2018-12-23T16:15:14.734Z,7.56
2018-12-23T16:17:45.147Z,7.62
2018-12-23T16:20:16.694Z,7.70
2018-12-23T16:22:47.430Z,7.68
2018-12-23T16:25:18.200Z,7.82
2018-12-23T16:27:48.837Z,7.91
2018-12-23T16:30:19.350Z,7.99
2018-12-23T16:32:49.853Z,8.04
2018-12-23T16:35:20.322Z,8.09
2018-12-23T16:37:50.793Z,8.16
2018-12-23T16:40:21.438Z,8.21
2018-12-23T16:42:51.829Z,8.18
2018-12-23T16:45:23.357Z,8.20
2018-12-23T16:47:53.890Z,8.21
2018-12-23T16:50:24.562Z,8.24
2018-12-23T16:52:54.855Z,8.34
2018-12-23T16:55:25.270Z,8.25
2018-12-23T16:57:56.576Z,8.28
2018-12-23T17:00:27.327Z,8.18
2018-12-23T17:02:57.873Z,8.10
2018-12-23T17:05:28.196Z,7.98
2018-12-23T17:07:58.946Z,7.82
2018-12-23T17:10:29.759Z,7.75
2018-12-23T17:13:00.411Z,7.78
2018-12-23T17:15:31.483Z,7.69
2018-12-23T17:18:02.067Z,7.58
2018-12-23T17:20:32.717Z,7.49
2018-12-23T17:23:03.154Z,7.47
2018-12-23T17:25:33.798Z,7.36
2018-12-23T17:28:04.325Z,7.36
2018-12-23T17:30:34.862Z,7.50
2018-12-23T17:33:05.151Z,7.55
2018-12-23T17:35:35.770Z,7.48
2018-12-23T17:38:06.547Z,7.50
2018-12-23T17:40:37.297Z,7.40
2018-12-23T17:43:08.008Z,7.31
2018-12-23T17:45:38.447Z,7.27
2018-12-23T17:48:08.876Z,7.23
2018-12-23T17:50:39.462Z,7.37
2018-12-23T17:53:10.099Z,7.26
2018-12-23T17:55:40.679Z,7.19
2018-12-23T17:58:10.991Z,7.15
2018-12-23T18:00:41.590Z,7.05
2018-12-23T18:03:12.408Z,7.11
2018-12-23T18:05:42.948Z,7.16
2018-12-23T18:08:13.463Z,7.02
2018-12-23T18:10:44.066Z,7.02
2018-12-23T18:13:14.362Z,7.03
2018-12-23T18:15:45.131Z,7.04
2018-12-23T18:18:15.931Z,7.02
2018-12-23T18:20:46.438Z,6.98
2018-12-23T18:23:16.835Z,7.10
2018-12-23T18:25:47.238Z,7.08
2018-12-23T18:28:17.569Z,7.04
2018-12-23T18:30:48.079Z,7.07
2018-12-23T18:33:18.807Z,7.13
2018-12-23T18:35:49.414Z,7.15
2018-12-23T18:38:20.137Z,7.12
2018-12-23T18:40:50.843Z,7.11
2018-12-23T18:43:21.540Z,7.17
2018-12-23T18:45:52.332Z,7.10
2018-12-23T18:48:23.183Z,7.07
2018-12-23T18:50:53.889Z,7.11
2018-12-23T18:53:24.558Z,7.22
2018-12-23T18:55:55.348Z,7.22
2018-12-23T18:58:26.179Z,7.19
2018-12-23T19:00:59.945Z,7.23
2018-12-23T19:03:30.421Z,7.19
2018-12-23T19:06:01.418Z,7.32
2018-12-23T19:08:46.932Z,7.27
2018-12-23T19:11:26.987Z,7.27
2018-12-23T19:14:24.266Z,7.22
2018-12-23T19:19:15.527Z,7.24
2018-12-23T19:21:56.959Z,7.13
2018-12-23T19:25:45.034Z,7.15
2018-12-23T19:28:30.590Z,7.24
2018-12-23T19:31:11.912Z,7.36
2018-12-23T19:33:57.259Z,7.49
2018-12-23T19:36:44.421Z,7.32
2018-12-23T19:41:27.319Z,7.31
2018-12-23T19:44:05.731Z,7.11
2018-12-23T19:47:49.787Z,6.87
2018-12-23T19:50:30.100Z,6.55
2018-12-23T19:54:09.254Z,6.38
2018-12-23T19:58:55.646Z,5.87
2018-12-23T20:01:35.846Z,5.28
2018-12-23T20:04:25.769Z,5.22
2018-12-23T20:08:17.113Z,5.08
2018-12-23T20:10:59.234Z,4.86
2018-12-23T20:13:44.677Z,4.71
2018-12-23T20:16:30.975Z,4.73
2018-12-23T20:19:16.676Z,4.79
2018-12-23T20:22:01.804Z,4.75
2018-12-23T20:25:53.595Z,4.59
2018-12-23T20:28:37.463Z,4.55
2018-12-23T20:31:23.604Z,4.59
2018-12-23T20:36:09.961Z,4.46
2018-12-23T20:40:50.771Z,4.20
2018-12-23T20:44:32.176Z,4.05
2018-12-23T20:47:29.021Z,4.10
2018-12-23T20:51:17.988Z,4.08
2018-12-23T20:54:01.327Z,4.08
2018-12-23T20:57:46.973Z,4.08
2018-12-23T21:01:30.861Z,4.15
2018-12-23T21:04:16.981Z,4.20
2018-12-23T21:08:03.764Z,4.28
2018-12-23T21:10:48.011Z,4.32
2018-12-23T21:14:28.555Z,4.40
2018-12-23T21:17:24.579Z,4.37
2018-12-23T21:20:12.387Z,4.36
2018-12-23T21:22:59.834Z,4.45
2018-12-23T21:26:10.033Z,4.43
2018-12-23T21:29:03.904Z,4.30
2018-12-23T21:32:47.834Z,4.22
2018-12-23T21:35:31.571Z,4.25
2018-12-23T21:38:44.927Z,4.33
2018-12-23T21:41:26.122Z,4.32
2018-12-23T21:46:14.953Z,4.29
2018-12-23T21:49:08.279Z,4.23
2018-12-23T21:52:58.461Z,4.07
2018-12-23T21:55:56.406Z,4.02
2018-12-23T21:58:46.130Z,4.06
2018-12-23T22:02:27.378Z,4.03
2018-12-23T22:05:21.522Z,3.94
2018-12-23T22:08:20.748Z,4.11
2018-12-23T22:12:06.684Z,4.19
2018-12-23T22:14:37.410Z,4.20
2018-12-23T22:17:42.999Z,4.26
2018-12-23T22:20:14.324Z,4.31
2018-12-23T22:22:45.687Z,4.35
2018-12-23T22:25:17.081Z,4.45
2018-12-23T22:27:48.576Z,4.49
2018-12-23T22:30:20.113Z,4.50
2018-12-23T22:32:51.331Z,4.45
2018-12-23T22:35:22.660Z,4.49
2018-12-23T22:37:53.979Z,4.49
2018-12-23T22:40:25.357Z,4.54
2018-12-23T22:42:56.670Z,4.56
2018-12-23T22:45:27.885Z,4.58
2018-12-23T22:47:59.205Z,4.54
2018-12-23T22:50:30.414Z,4.58
2018-12-23T22:53:01.615Z,4.53
2018-12-23T22:55:32.783Z,4.42
2018-12-23T22:58:04.066Z,4.40
2018-12-23T23:00:35.491Z,4.33
2018-12-23T23:03:09.260Z,4.14
2018-12-23T23:05:40.028Z,4.15
2018-12-23T23:08:11.778Z,4.10
2018-12-23T23:10:43.573Z,4.19
2018-12-23T23:13:18.699Z,4.20
2018-12-23T23:15:47.975Z,4.15
2018-12-23T23:18:20.592Z,4.17
2018-12-23T23:20:51.918Z,4.18
2018-12-23T23:23:23.479Z,4.24
2018-12-23T23:25:54.602Z,4.27
2018-12-23T23:28:26.227Z,4.21
2018-12-23T23:30:57.479Z,4.22
2018-12-23T23:33:28.808Z,4.17
2018-12-23T23:36:00.181Z,4.19
2018-12-23T23:38:31.261Z,4.16
2018-12-23T23:41:02.675Z,4.18
2018-12-23T23:43:34.071Z,4.10
2018-12-23T23:46:05.480Z,3.97
2018-12-23T23:48:36.637Z,4.09
2018-12-23T23:51:07.897Z,3.98
2018-12-23T23:53:39.247Z,4.00
2018-12-23T23:56:10.775Z,4.02
2018-12-23T23:58:42.181Z,4.02
